createdAt,value
2022-08-20T00:02:16.290Z,20.40
2022-08-20T00:09:51.595Z,20.40
2022-08-20T00:12:19.935Z,20.30
2022-08-20T00:14:48.276Z,20.20
2022-08-20T00:17:16.015Z,20.10
2022-08-20T00:19:43.791Z,20.00
2022-08-20T00:22:11.345Z,19.90
2022-08-20T00:24:38.635Z,19.80
2022-08-20T00:34:51.994Z,19.70
2022-08-20T00:37:19.585Z,19.60
2022-08-20T00:39:48.118Z,19.70
2022-08-20T00:42:15.824Z,19.70
2022-08-20T00:44:46.513Z,19.70
2022-08-20T00:47:14.723Z,19.70
2022-08-20T00:49:45.094Z,19.70
2022-08-20T01:00:29.605Z,20.00
2022-08-20T01:02:58.903Z,20.20
2022-08-20T01:05:29.494Z,20.10
2022-08-20T01:07:58.574Z,20.10
2022-08-20T01:10:30.097Z,20.30
2022-08-20T01:12:59.932Z,20.20
2022-08-20T01:15:32.054Z,20.30
2022-08-20T01:18:03.784Z,20.30
2022-08-20T01:25:47.053Z,20.20
2022-08-20T01:28:18.703Z,20.30
2022-08-20T01:30:46.754Z,20.20
2022-08-20T01:33:14.765Z,20.20
2022-08-20T01:35:44.056Z,20.10
2022-08-20T01:38:12.823Z,20.10
2022-08-20T01:40:59.023Z,20.00
2022-08-20T01:47:49.734Z,20.00
2022-08-20T01:50:24.313Z,19.90
2022-08-20T01:52:59.343Z,19.70
2022-08-20T01:55:29.121Z,19.80
2022-08-20T01:57:57.473Z,19.80
2022-08-20T02:00:25.341Z,20.00
2022-08-20T02:02:55.264Z,19.90
2022-08-20T02:08:08.993Z,19.90
2022-08-20T02:10:36.943Z,19.80
2022-08-20T02:13:05.413Z,19.80
2022-08-20T02:15:37.128Z,19.70
2022-08-20T02:18:09.783Z,19.80
2022-08-20T02:20:37.954Z,19.80
2022-08-20T02:23:07.756Z,19.80
2022-08-20T02:25:39.703Z,19.80
2022-08-20T02:33:14.823Z,19.80
2022-08-20T02:35:47.174Z,19.70
2022-08-20T02:38:16.243Z,19.70
2022-08-20T02:40:46.123Z,19.80
2022-08-20T02:43:14.033Z,19.80
2022-08-20T02:45:43.730Z,19.80
2022-08-20T02:48:20.081Z,19.70
2022-08-20T02:55:52.861Z,19.80
2022-08-20T02:58:20.661Z,19.70
2022-08-20T03:00:48.674Z,19.70
2022-08-20T03:03:19.904Z,19.70
2022-08-20T03:05:47.036Z,19.60
2022-08-20T03:08:18.224Z,19.60
2022-08-20T03:10:50.324Z,19.80
2022-08-20T03:18:25.274Z,19.90
2022-08-20T03:20:52.894Z,19.90
2022-08-20T03:23:23.113Z,19.90
2022-08-20T03:25:53.026Z,19.90
2022-08-20T03:28:20.494Z,19.90
2022-08-20T03:30:48.473Z,20.10
2022-08-20T03:33:16.786Z,20.20
2022-08-20T03:40:50.835Z,20.20
2022-08-20T03:43:18.707Z,20.50
2022-08-20T03:45:47.756Z,20.60
2022-08-20T03:48:20.063Z,20.50
2022-08-20T03:50:49.665Z,20.50
2022-08-20T03:53:18.355Z,20.40
2022-08-20T03:55:59.261Z,20.40
2022-08-20T03:58:35.483Z,20.40
2022-08-20T04:06:05.464Z,20.10
2022-08-20T04:08:32.944Z,19.90
2022-08-20T04:11:01.463Z,19.70
2022-08-20T04:13:30.483Z,19.50
2022-08-20T04:15:58.997Z,19.70
2022-08-20T04:18:30.106Z,19.60
2022-08-20T04:20:57.654Z,19.60
2022-08-20T04:31:04.104Z,19.50
2022-08-20T04:33:33.863Z,19.60
2022-08-20T04:36:08.353Z,19.50
2022-08-20T04:38:48.509Z,19.70
2022-08-20T04:41:23.384Z,19.70
2022-08-20T04:43:52.683Z,19.90
2022-08-20T04:49:38.504Z,20.00
2022-08-20T04:52:06.865Z,20.20
2022-08-20T04:54:35.782Z,20.30
2022-08-20T04:57:03.461Z,20.30
2022-08-20T04:59:31.081Z,20.10
2022-08-20T05:01:58.903Z,20.10
2022-08-20T05:04:27.114Z,20.00
2022-08-20T05:06:55.424Z,19.90
2022-08-20T05:14:31.284Z,19.80
2022-08-20T05:16:58.444Z,19.40
2022-08-20T05:19:26.164Z,19.40
2022-08-20T05:21:53.779Z,19.40
2022-08-20T05:24:21.517Z,19.40
2022-08-20T05:26:49.054Z,19.30
2022-08-20T05:29:16.354Z,19.30
2022-08-20T05:34:24.714Z,19.40
2022-08-20T05:36:52.863Z,19.20
2022-08-20T05:39:23.664Z,19.20
2022-08-20T05:41:52.613Z,19.10
2022-08-20T05:44:23.016Z,19.10
2022-08-20T05:46:50.654Z,19.10
2022-08-20T05:49:20.802Z,19.10
2022-08-20T05:57:30.174Z,19.20
2022-08-20T06:00:01.104Z,19.40
2022-08-20T06:02:46.384Z,19.30
2022-08-20T06:05:14.234Z,19.50
2022-08-20T06:07:44.624Z,19.50
2022-08-20T06:10:13.204Z,19.30
2022-08-20T06:12:43.874Z,19.40
2022-08-20T06:20:15.481Z,19.60
2022-08-20T06:22:44.474Z,19.60
2022-08-20T06:25:15.014Z,19.70
2022-08-20T06:27:44.662Z,19.90
2022-08-20T06:30:15.617Z,20.20
2022-08-20T06:32:43.664Z,20.20
2022-08-20T06:35:12.225Z,20.30
2022-08-20T06:37:43.134Z,20.60
2022-08-20T06:45:18.362Z,20.50
2022-08-20T06:47:47.437Z,20.50
2022-08-20T06:50:22.288Z,20.50
2022-08-20T06:52:53.226Z,20.50
2022-08-20T06:55:22.377Z,20.50
2022-08-20T06:57:58.903Z,20.60
2022-08-20T07:00:31.044Z,20.60
2022-08-20T07:03:00.656Z,21.00
2022-08-20T07:10:38.314Z,20.90
2022-08-20T07:13:09.104Z,21.30
2022-08-20T07:15:36.803Z,21.50
2022-08-20T07:18:06.805Z,21.60
2022-08-20T07:20:36.664Z,21.60
2022-08-20T07:23:04.404Z,21.70
2022-08-20T07:25:33.243Z,21.80
2022-08-20T07:33:10.044Z,22.00
2022-08-20T07:35:37.785Z,22.10
2022-08-20T07:38:07.293Z,22.30
2022-08-20T07:40:37.060Z,22.20
2022-08-20T07:43:04.564Z,22.30
2022-08-20T07:45:32.093Z,22.30
2022-08-20T07:48:08.057Z,22.00
2022-08-20T07:55:42.044Z,22.20
2022-08-20T07:58:33.086Z,21.80
2022-08-20T08:01:01.528Z,21.90
2022-08-20T08:03:39.876Z,22.00
2022-08-20T08:06:28.321Z,22.10
2022-08-20T08:09:02.152Z,22.40
2022-08-20T08:16:35.976Z,22.90
2022-08-20T08:19:07.060Z,22.40
2022-08-20T08:21:35.304Z,22.30
2022-08-20T08:24:02.654Z,22.30
2022-08-20T08:26:33.433Z,22.30
2022-08-20T08:29:02.204Z,22.20
2022-08-20T08:31:30.895Z,22.30
2022-08-20T08:39:08.384Z,22.40
2022-08-20T08:41:38.274Z,22.90
2022-08-20T08:44:10.754Z,22.90
2022-08-20T08:46:42.094Z,22.90
2022-08-20T08:49:14.433Z,23.10
2022-08-20T08:51:46.095Z,23.20
2022-08-20T08:54:16.915Z,23.40
2022-08-20T09:04:32.386Z,22.40
2022-08-20T09:07:01.764Z,22.30
2022-08-20T09:09:32.284Z,22.00
2022-08-20T09:12:05.934Z,22.20
2022-08-20T09:14:33.956Z,22.20
2022-08-20T09:17:01.744Z,22.20
2022-08-20T09:19:31.517Z,22.50
2022-08-20T09:27:09.856Z,22.80
2022-08-20T09:29:37.303Z,22.40
2022-08-20T09:32:09.268Z,22.20
2022-08-20T09:34:41.432Z,21.80
2022-08-20T09:37:09.522Z,21.50
2022-08-20T09:39:38.559Z,21.50
2022-08-20T09:42:13.474Z,21.20
2022-08-20T09:49:46.723Z,21.00
2022-08-20T09:52:23.833Z,21.30
2022-08-20T09:54:52.406Z,21.50
2022-08-20T09:57:19.854Z,21.70
2022-08-20T09:59:53.734Z,21.90
2022-08-20T10:02:21.113Z,21.70
2022-08-20T10:04:51.807Z,21.90
2022-08-20T10:12:26.395Z,22.20
2022-08-20T10:14:55.174Z,22.60
2022-08-20T10:17:23.396Z,22.80
2022-08-20T10:19:51.724Z,22.90
2022-08-20T10:22:20.523Z,23.00
2022-08-20T10:24:48.795Z,23.30
2022-08-20T10:27:17.464Z,23.30
2022-08-20T10:29:47.412Z,23.50
2022-08-20T10:37:24.029Z,23.90
2022-08-20T10:39:53.265Z,24.30
2022-08-20T10:42:22.066Z,24.70
2022-08-20T10:44:50.537Z,25.00
2022-08-20T10:47:21.779Z,25.00
2022-08-20T10:49:50.126Z,25.10
2022-08-20T10:52:18.449Z,25.10
2022-08-20T11:00:53.216Z,24.70
2022-08-20T11:03:21.717Z,24.40
2022-08-20T11:05:49.389Z,24.40
2022-08-20T11:08:25.116Z,25.00
2022-08-20T11:11:02.216Z,25.00
2022-08-20T11:13:30.027Z,25.40
2022-08-20T11:15:59.408Z,25.70
2022-08-20T11:21:11.760Z,25.70
2022-08-20T11:23:41.269Z,25.60
2022-08-20T11:26:09.638Z,25.50
2022-08-20T11:28:37.535Z,24.90
2022-08-20T11:31:06.657Z,25.00
2022-08-20T11:33:35.247Z,25.10
2022-08-20T11:36:03.087Z,25.00
2022-08-20T11:38:46.852Z,25.20
2022-08-20T11:46:24.300Z,25.70
2022-08-20T11:48:54.458Z,26.20
2022-08-20T11:51:21.928Z,26.10
2022-08-20T11:53:49.784Z,25.60
2022-08-20T11:56:20.007Z,25.40
2022-08-20T11:58:48.209Z,25.50
2022-08-20T12:01:18.278Z,25.40
2022-08-20T12:06:48.268Z,25.60
2022-08-20T12:09:16.949Z,25.70
2022-08-20T12:11:47.297Z,26.00
2022-08-20T12:14:15.575Z,25.50
2022-08-20T12:16:42.889Z,25.30
2022-08-20T12:19:11.256Z,25.30
2022-08-20T12:21:39.019Z,25.20
2022-08-20T12:29:41.727Z,25.30
2022-08-20T12:32:11.017Z,25.30
2022-08-20T12:34:42.058Z,25.50
2022-08-20T12:37:15.735Z,25.50
2022-08-20T12:39:51.518Z,25.40
2022-08-20T12:42:20.182Z,25.60
2022-08-20T12:44:55.058Z,25.90
2022-08-20T12:47:32.657Z,26.00
2022-08-20T12:52:59.927Z,25.90
2022-08-20T12:55:29.128Z,26.10
2022-08-20T12:57:59.858Z,25.80
2022-08-20T13:00:33.148Z,25.80
2022-08-20T13:03:04.319Z,25.70
2022-08-20T13:05:33.506Z,25.50
2022-08-20T13:08:07.338Z,25.50
2022-08-20T13:15:43.318Z,25.90
2022-08-20T13:18:11.137Z,25.60
2022-08-20T13:20:38.869Z,25.60
2022-08-20T13:23:06.558Z,25.60
2022-08-20T13:25:34.749Z,25.30
2022-08-20T13:28:04.532Z,25.50
2022-08-20T13:30:37.138Z,25.60
2022-08-20T13:38:09.018Z,25.60
2022-08-20T13:40:36.818Z,25.80
2022-08-20T13:43:07.052Z,25.60
2022-08-20T13:45:36.329Z,25.80
2022-08-20T13:48:05.357Z,25.60
2022-08-20T13:50:35.570Z,25.60
2022-08-20T13:53:03.258Z,25.90
2022-08-20T14:00:36.528Z,25.80
2022-08-20T14:03:05.973Z,25.60
2022-08-20T14:05:35.517Z,25.50
2022-08-20T14:08:09.091Z,25.90
2022-08-20T14:10:37.586Z,26.10
2022-08-20T14:13:16.238Z,26.20
2022-08-20T14:15:46.758Z,26.40
2022-08-20T14:23:20.838Z,26.10
2022-08-20T14:25:50.777Z,25.50
2022-08-20T14:28:20.045Z,25.50
2022-08-20T14:30:52.809Z,25.60
2022-08-20T14:33:23.792Z,25.70
2022-08-20T14:35:55.276Z,25.80
2022-08-20T14:38:24.216Z,25.90
2022-08-20T14:46:14.304Z,26.10
2022-08-20T14:48:42.145Z,25.40
2022-08-20T14:51:10.111Z,25.40
2022-08-20T14:53:40.451Z,25.50
2022-08-20T14:56:10.074Z,25.80
2022-08-20T14:58:37.724Z,25.60
2022-08-20T15:01:05.957Z,25.70
2022-08-20T15:08:40.067Z,26.00
2022-08-20T15:11:08.495Z,25.60
2022-08-20T15:13:36.695Z,25.50
2022-08-20T15:16:05.626Z,25.70
2022-08-20T15:18:34.336Z,25.70
2022-08-20T15:21:02.436Z,25.70
2022-08-20T15:23:30.995Z,25.90
2022-08-20T15:26:01.564Z,26.00
2022-08-20T15:33:39.475Z,26.20
2022-08-20T15:36:10.165Z,25.60
2022-08-20T15:38:38.284Z,25.70
2022-08-20T15:41:06.964Z,25.70
2022-08-20T15:43:35.595Z,25.30
2022-08-20T15:46:06.074Z,25.30
2022-08-20T15:48:39.420Z,25.40
2022-08-20T15:56:33.195Z,25.90
2022-08-20T15:59:14.164Z,26.00
2022-08-20T16:01:47.665Z,25.90
2022-08-20T16:04:38.554Z,25.90
2022-08-20T16:07:13.324Z,25.60
2022-08-20T16:09:55.432Z,25.40
2022-08-20T16:12:33.734Z,25.40
2022-08-20T16:20:08.115Z,25.20
2022-08-20T16:22:39.704Z,25.20
2022-08-20T16:25:09.726Z,25.30
2022-08-20T16:27:50.748Z,25.40
2022-08-20T16:30:24.104Z,25.50
2022-08-20T16:33:00.472Z,25.40
2022-08-20T16:42:34.973Z,24.70
2022-08-20T16:45:06.784Z,24.70
2022-08-20T16:47:37.384Z,24.50
2022-08-20T16:50:10.861Z,24.50
2022-08-20T16:52:42.021Z,24.50
2022-08-20T16:55:12.101Z,24.60
2022-08-20T16:57:40.383Z,24.50
2022-08-20T17:05:13.706Z,24.20
2022-08-20T17:07:46.275Z,24.20
2022-08-20T17:10:20.220Z,24.30
2022-08-20T17:12:54.477Z,24.30
2022-08-20T17:15:30.241Z,24.30
2022-08-20T17:17:58.103Z,24.20
2022-08-20T17:20:29.117Z,24.20
2022-08-20T17:25:38.192Z,24.30
2022-08-20T17:28:15.952Z,24.30
2022-08-20T17:30:43.871Z,24.40
2022-08-20T17:33:26.183Z,24.00
2022-08-20T17:35:58.351Z,23.80
2022-08-20T17:38:35.481Z,23.70
2022-08-20T17:41:15.258Z,23.60
2022-08-20T17:46:36.382Z,23.50
2022-08-20T17:49:10.171Z,23.40
2022-08-20T17:51:43.541Z,23.50
2022-08-20T17:54:16.251Z,23.60
2022-08-20T17:56:45.181Z,23.60
2022-08-20T17:59:24.206Z,23.50
2022-08-20T18:02:10.755Z,23.30
2022-08-20T18:12:40.102Z,22.70
2022-08-20T18:15:14.672Z,22.60
2022-08-20T18:18:18.582Z,22.50
2022-08-20T18:21:16.031Z,22.40
2022-08-20T18:23:53.261Z,22.30
2022-08-20T18:26:29.363Z,22.30
2022-08-20T18:29:08.541Z,22.50
2022-08-20T18:36:43.154Z,22.70
2022-08-20T18:39:24.860Z,22.40
2022-08-20T18:42:00.820Z,22.20
2022-08-20T18:44:34.641Z,22.30
2022-08-20T18:47:07.479Z,22.30
2022-08-20T18:49:38.101Z,22.10
2022-08-20T18:52:14.591Z,22.10
2022-08-20T19:00:03.784Z,22.20
2022-08-20T19:02:33.701Z,21.80
2022-08-20T19:05:07.271Z,21.80
2022-08-20T19:07:48.238Z,21.60
2022-08-20T19:10:48.570Z,21.50
2022-08-20T19:13:57.540Z,21.40
2022-08-20T19:21:30.623Z,21.10
2022-08-20T19:24:04.624Z,21.30
2022-08-20T19:26:43.124Z,21.20
2022-08-20T19:29:13.937Z,21.00
2022-08-20T19:31:44.615Z,20.90
2022-08-20T19:34:19.982Z,20.90
2022-08-20T19:36:58.264Z,20.80
2022-08-20T19:44:39.511Z,20.60
2022-08-20T19:47:19.846Z,20.40
2022-08-20T19:49:58.954Z,20.30
2022-08-20T19:52:39.612Z,20.30
2022-08-20T19:55:21.566Z,20.20
2022-08-20T19:57:59.110Z,20.20
2022-08-20T20:03:13.421Z,20.20
2022-08-20T20:05:52.553Z,20.10
2022-08-20T20:08:26.712Z,20.00
2022-08-20T20:11:02.984Z,19.90
2022-08-20T20:13:39.560Z,20.00
2022-08-20T20:16:10.024Z,20.00
2022-08-20T20:18:45.314Z,20.00
2022-08-20T20:26:21.922Z,20.10
2022-08-20T20:28:54.823Z,20.00
2022-08-20T20:31:31.421Z,20.00
2022-08-20T20:34:18.533Z,20.00
2022-08-20T20:37:10.863Z,20.00
2022-08-20T20:39:44.950Z,19.80
2022-08-20T20:48:52.013Z,19.70
2022-08-20T20:51:26.983Z,19.80
2022-08-20T20:53:59.830Z,19.70
2022-08-20T20:56:34.743Z,19.70
2022-08-20T20:59:06.852Z,19.80
2022-08-20T21:01:50.256Z,19.70
2022-08-20T21:04:21.482Z,19.70
2022-08-20T21:11:56.771Z,19.60
2022-08-20T21:14:24.841Z,19.60
2022-08-20T21:17:03.942Z,19.50
2022-08-20T21:19:32.151Z,19.60
2022-08-20T21:22:00.524Z,19.80
2022-08-20T21:24:29.821Z,19.70
2022-08-20T21:27:01.032Z,19.70
2022-08-20T21:34:37.381Z,19.80
2022-08-20T21:37:06.908Z,19.80
2022-08-20T21:39:35.691Z,20.00
2022-08-20T21:42:21.033Z,20.00
2022-08-20T21:44:55.101Z,20.00
2022-08-20T21:47:23.592Z,20.00
2022-08-20T21:49:52.752Z,19.90
2022-08-20T21:55:39.253Z,19.70
2022-08-20T21:58:09.601Z,19.60
2022-08-20T22:00:56.616Z,19.70
2022-08-20T22:03:32.635Z,19.80
2022-08-20T22:06:01.474Z,19.80
2022-08-20T22:08:29.280Z,19.80
2022-08-20T22:10:59.662Z,19.80
2022-08-20T22:18:33.022Z,19.80
2022-08-20T22:21:01.014Z,19.80
2022-08-20T22:23:30.002Z,19.70
2022-08-20T22:25:58.180Z,19.80
2022-08-20T22:28:26.101Z,19.70
2022-08-20T22:30:54.683Z,19.60
2022-08-20T22:33:23.965Z,19.50
2022-08-20T22:35:55.492Z,19.50
2022-08-20T22:43:28.201Z,19.60
2022-08-20T22:46:00.341Z,19.70
2022-08-20T22:48:29.681Z,19.60
2022-08-20T22:50:58.662Z,19.50
2022-08-20T22:53:27.421Z,19.60
2022-08-20T22:55:55.481Z,19.70
2022-08-20T22:58:31.289Z,19.80
2022-08-20T23:09:01.749Z,19.80
2022-08-20T23:11:30.659Z,19.80
2022-08-20T23:13:58.864Z,19.90
2022-08-20T23:16:26.542Z,20.20
2022-08-20T23:18:56.859Z,20.50
2022-08-20T23:21:24.771Z,20.60
2022-08-20T23:23:55.061Z,20.70
2022-08-20T23:31:28.931Z,20.90
2022-08-20T23:33:57.301Z,21.10
2022-08-20T23:36:26.152Z,21.00
2022-08-20T23:38:54.112Z,20.90
2022-08-20T23:41:23.950Z,20.90
2022-08-20T23:43:51.520Z,21.00
2022-08-20T23:46:21.401Z,20.90
2022-08-20T23:51:42.391Z,21.00
2022-08-20T23:54:10.121Z,20.90
2022-08-20T23:56:38.990Z,20.80
2022-08-20T23:59:07.461Z,20.90
